sensor_id;sensor_type;location;lat;lon;timestamp;pressure;altitude;pressure_sealevel;temperature;humidity
78857;BME280;68207;50.078;19.936;2023-04-23T00:00:33;98677.84;;;10.51;54.45
78857;BME280;68207;50.078;19.936;2023-04-23T00:03:05;98676.46;;;10.46;54.42
78857;BME280;68207;50.078;19.936;2023-04-23T00:05:35;98676.73;;;10.43;54.24
78857;BME280;68207;50.078;19.936;2023-04-23T00:08:01;98673.45;;;10.39;54.42
78857;BME280;68207;50.078;19.936;2023-04-23T00:10:28;98671.77;;;10.35;54.46
78857;BME280;68207;50.078;19.936;2023-04-23T00:12:53;98671.16;;;10.30;54.96
78857;BME280;68207;50.078;19.936;2023-04-23T00:15:19;98671.86;;;10.26;55.21
78857;BME280;68207;50.078;19.936;2023-04-23T00:17:47;98670.94;;;10.21;55.39
78857;BME280;68207;50.078;19.936;2023-04-23T00:20:14;98669.98;;;10.17;55.52
78857;BME280;68207;50.078;19.936;2023-04-23T00:22:41;98669.15;;;10.14;55.67
78857;BME280;68207;50.078;19.936;2023-04-23T00:25:07;98673.55;;;10.10;56.03
78857;BME280;68207;50.078;19.936;2023-04-23T00:27:32;98673.65;;;10.06;56.06
78857;BME280;68207;50.078;19.936;2023-04-23T00:29:57;98674.45;;;10.04;55.96
78857;BME280;68207;50.078;19.936;2023-04-23T00:32:23;98671.17;;;10.02;56.06
78857;BME280;68207;50.078;19.936;2023-04-23T00:34:48;98668.56;;;10.00;56.11
78857;BME280;68207;50.078;19.936;2023-04-23T00:37:13;98666.72;;;9.98;56.16
78857;BME280;68207;50.078;19.936;2023-04-23T00:39:39;98668.23;;;9.95;56.25
78857;BME280;68207;50.078;19.936;2023-04-23T00:42:05;98664.75;;;9.92;56.44
78857;BME280;68207;50.078;19.936;2023-04-23T00:44:36;98667.30;;;9.90;56.59
78857;BME280;68207;50.078;19.936;2023-04-23T00:47:01;98663.45;;;9.87;56.79
78857;BME280;68207;50.078;19.936;2023-04-23T00:49:27;98664.52;;;9.83;56.85
78857;BME280;68207;50.078;19.936;2023-04-23T00:51:52;98666.97;;;9.79;56.70
78857;BME280;68207;50.078;19.936;2023-04-23T00:54:18;98662.29;;;9.75;56.75
78857;BME280;68207;50.078;19.936;2023-04-23T00:56:43;98663.58;;;9.72;56.58
78857;BME280;68207;50.078;19.936;2023-04-23T00:59:08;98660.59;;;9.67;56.84
78857;BME280;68207;50.078;19.936;2023-04-23T01:01:34;98666.13;;;9.63;56.86
78857;BME280;68207;50.078;19.936;2023-04-23T01:04:00;98668.34;;;9.59;57.16
78857;BME280;68207;50.078;19.936;2023-04-23T01:06:26;98664.61;;;9.55;57.22
78857;BME280;68207;50.078;19.936;2023-04-23T01:08:53;98666.75;;;9.50;57.33
78857;BME280;68207;50.078;19.936;2023-04-23T01:11:18;98664.09;;;9.45;57.50
78857;BME280;68207;50.078;19.936;2023-04-23T01:13:44;98663.23;;;9.41;57.50
78857;BME280;68207;50.078;19.936;2023-04-23T01:16:10;98664.29;;;9.38;57.62
78857;BME280;68207;50.078;19.936;2023-04-23T01:18:35;98663.02;;;9.33;57.79
78857;BME280;68207;50.078;19.936;2023-04-23T01:21:02;98665.84;;;9.30;57.98
78857;BME280;68207;50.078;19.936;2023-04-23T01:23:28;98664.34;;;9.26;58.13
78857;BME280;68207;50.078;19.936;2023-04-23T01:25:54;98663.66;;;9.22;58.17
78857;BME280;68207;50.078;19.936;2023-04-23T01:28:20;98667.40;;;9.19;58.27
78857;BME280;68207;50.078;19.936;2023-04-23T01:30:45;98669.11;;;9.15;58.41
78857;BME280;68207;50.078;19.936;2023-04-23T01:33:11;98672.88;;;9.11;58.63
78857;BME280;68207;50.078;19.936;2023-04-23T01:35:38;98672.27;;;9.07;58.56
78857;BME280;68207;50.078;19.936;2023-04-23T01:38:06;98672.89;;;9.05;58.73
78857;BME280;68207;50.078;19.936;2023-04-23T01:40:31;98670.56;;;9.02;58.73
78857;BME280;68207;50.078;19.936;2023-04-23T01:42:57;98672.23;;;8.98;58.95
78857;BME280;68207;50.078;19.936;2023-04-23T01:45:22;98675.30;;;8.96;59.22
78857;BME280;68207;50.078;19.936;2023-04-23T01:47:48;98672.70;;;8.92;59.18
78857;BME280;68207;50.078;19.936;2023-04-23T01:50:13;98674.02;;;8.90;59.42
78857;BME280;68207;50.078;19.936;2023-04-23T01:52:38;98676.35;;;8.86;59.60
78857;BME280;68207;50.078;19.936;2023-04-23T01:55:05;98676.02;;;8.83;59.71
78857;BME280;68207;50.078;19.936;2023-04-23T01:57:30;98674.27;;;8.79;59.71
78857;BME280;68207;50.078;19.936;2023-04-23T02:00:10;98677.12;;;8.78;60.08
78857;BME280;68207;50.078;19.936;2023-04-23T02:02:37;98674.98;;;8.75;59.93
78857;BME280;68207;50.078;19.936;2023-04-23T02:05:03;98676.30;;;8.72;60.19
78857;BME280;68207;50.078;19.936;2023-04-23T02:07:32;98677.02;;;8.69;60.23
78857;BME280;68207;50.078;19.936;2023-04-23T02:09:57;98680.70;;;8.66;60.36
78857;BME280;68207;50.078;19.936;2023-04-23T02:12:23;98678.86;;;8.64;60.40
78857;BME280;68207;50.078;19.936;2023-04-23T02:14:49;98678.21;;;8.60;60.56
78857;BME280;68207;50.078;19.936;2023-04-23T02:17:15;98682.16;;;8.56;60.71
78857;BME280;68207;50.078;19.936;2023-04-23T02:19:40;98676.00;;;8.51;60.68
78857;BME280;68207;50.078;19.936;2023-04-23T02:22:05;98674.54;;;8.50;60.75
78857;BME280;68207;50.078;19.936;2023-04-23T02:24:31;98675.40;;;8.52;60.99
78857;BME280;68207;50.078;19.936;2023-04-23T02:26:57;98673.48;;;8.52;61.09
78857;BME280;68207;50.078;19.936;2023-04-23T02:29:23;98673.02;;;8.51;61.10
78857;BME280;68207;50.078;19.936;2023-04-23T02:31:48;98670.08;;;8.50;61.00
78857;BME280;68207;50.078;19.936;2023-04-23T02:34:13;98670.38;;;8.50;61.16
78857;BME280;68207;50.078;19.936;2023-04-23T02:36:39;98668.52;;;8.47;61.08
78857;BME280;68207;50.078;19.936;2023-04-23T02:39:04;98669.75;;;8.44;61.22
78857;BME280;68207;50.078;19.936;2023-04-23T02:41:29;98666.48;;;8.42;61.11
78857;BME280;68207;50.078;19.936;2023-04-23T02:43:55;98666.13;;;8.40;61.00
78857;BME280;68207;50.078;19.936;2023-04-23T02:46:20;98664.67;;;8.37;61.11
78857;BME280;68207;50.078;19.936;2023-04-23T02:48:45;98669.16;;;8.34;60.95
78857;BME280;68207;50.078;19.936;2023-04-23T02:51:12;98667.45;;;8.32;61.04
78857;BME280;68207;50.078;19.936;2023-04-23T02:53:37;98668.70;;;8.31;61.09
78857;BME280;68207;50.078;19.936;2023-04-23T02:56:03;98666.13;;;8.26;61.05
78857;BME280;68207;50.078;19.936;2023-04-23T02:58:29;98668.47;;;8.24;61.11
78857;BME280;68207;50.078;19.936;2023-04-23T03:00:55;98668.92;;;8.20;61.45
78857;BME280;68207;50.078;19.936;2023-04-23T03:03:20;98668.04;;;8.17;61.49
78857;BME280;68207;50.078;19.936;2023-04-23T03:05:46;98662.91;;;8.12;61.55
78857;BME280;68207;50.078;19.936;2023-04-23T03:08:12;98663.54;;;8.10;62.15
78857;BME280;68207;50.078;19.936;2023-04-23T03:10:37;98665.75;;;8.07;62.01
78857;BME280;68207;50.078;19.936;2023-04-23T03:13:02;98661.22;;;8.05;62.01
78857;BME280;68207;50.078;19.936;2023-04-23T03:15:28;98658.52;;;8.01;62.31
78857;BME280;68207;50.078;19.936;2023-04-23T03:17:54;98660.00;;;7.99;62.33
78857;BME280;68207;50.078;19.936;2023-04-23T03:20:19;98664.27;;;8.00;62.17
78857;BME280;68207;50.078;19.936;2023-04-23T03:22:45;98665.38;;;8.03;62.37
78857;BME280;68207;50.078;19.936;2023-04-23T03:25:10;98666.21;;;8.03;62.39
78857;BME280;68207;50.078;19.936;2023-04-23T03:27:40;98668.33;;;8.03;62.34
78857;BME280;68207;50.078;19.936;2023-04-23T03:30:07;98669.41;;;8.03;62.29
78857;BME280;68207;50.078;19.936;2023-04-23T03:32:33;98670.61;;;8.02;62.24
78857;BME280;68207;50.078;19.936;2023-04-23T03:34:58;98673.62;;;7.98;62.21
78857;BME280;68207;50.078;19.936;2023-04-23T03:37:24;98669.33;;;7.97;62.45
78857;BME280;68207;50.078;19.936;2023-04-23T03:39:49;98668.66;;;7.97;62.71
78857;BME280;68207;50.078;19.936;2023-04-23T03:42:15;98664.48;;;7.95;62.77
78857;BME280;68207;50.078;19.936;2023-04-23T03:44:40;98663.13;;;7.94;62.66
78857;BME280;68207;50.078;19.936;2023-04-23T03:47:06;98662.79;;;7.92;62.77
78857;BME280;68207;50.078;19.936;2023-04-23T03:49:31;98663.77;;;7.90;62.82
78857;BME280;68207;50.078;19.936;2023-04-23T03:51:56;98667.10;;;7.86;62.83
78857;BME280;68207;50.078;19.936;2023-04-23T03:54:22;98664.00;;;7.84;62.79
78857;BME280;68207;50.078;19.936;2023-04-23T03:56:48;98666.00;;;7.84;62.74
78857;BME280;68207;50.078;19.936;2023-04-23T03:59:13;98666.16;;;7.80;62.81
78857;BME280;68207;50.078;19.936;2023-04-23T04:01:39;98666.48;;;7.81;62.81
78857;BME280;68207;50.078;19.936;2023-04-23T04:04:04;98673.36;;;7.80;62.81
78857;BME280;68207;50.078;19.936;2023-04-23T04:06:29;98673.50;;;7.81;62.98
78857;BME280;68207;50.078;19.936;2023-04-23T04:08:55;98672.16;;;7.82;62.85
78857;BME280;68207;50.078;19.936;2023-04-23T04:11:20;98673.92;;;7.83;63.20
78857;BME280;68207;50.078;19.936;2023-04-23T04:13:46;98673.96;;;7.88;62.97
78857;BME280;68207;50.078;19.936;2023-04-23T04:16:11;98675.42;;;7.93;63.12
78857;BME280;68207;50.078;19.936;2023-04-23T04:18:36;98676.45;;;7.98;62.88
78857;BME280;68207;50.078;19.936;2023-04-23T04:21:03;98675.34;;;8.03;63.02
78857;BME280;68207;50.078;19.936;2023-04-23T04:23:28;98676.21;;;8.08;62.66
78857;BME280;68207;50.078;19.936;2023-04-23T04:25:54;98679.70;;;8.15;62.41
78857;BME280;68207;50.078;19.936;2023-04-23T04:28:20;98679.79;;;8.21;62.43
78857;BME280;68207;50.078;19.936;2023-04-23T04:30:46;98680.61;;;8.26;62.44
78857;BME280;68207;50.078;19.936;2023-04-23T04:33:14;98684.14;;;8.33;62.40
78857;BME280;68207;50.078;19.936;2023-04-23T04:35:39;98684.39;;;8.37;62.34
78857;BME280;68207;50.078;19.936;2023-04-23T04:38:05;98686.42;;;8.41;62.14
78857;BME280;68207;50.078;19.936;2023-04-23T04:40:32;98687.28;;;8.46;62.13
78857;BME280;68207;50.078;19.936;2023-04-23T04:42:58;98687.52;;;8.52;62.08
78857;BME280;68207;50.078;19.936;2023-04-23T04:45:24;98691.94;;;8.57;62.02
78857;BME280;68207;50.078;19.936;2023-04-23T04:47:50;98691.63;;;8.63;61.97
78857;BME280;68207;50.078;19.936;2023-04-23T04:50:15;98690.09;;;8.69;61.85
78857;BME280;68207;50.078;19.936;2023-04-23T04:52:41;98688.49;;;8.74;61.88
78857;BME280;68207;50.078;19.936;2023-04-23T04:55:06;98689.54;;;8.80;61.54
78857;BME280;68207;50.078;19.936;2023-04-23T04:57:32;98690.81;;;8.86;61.42
78857;BME280;68207;50.078;19.936;2023-04-23T04:59:57;98694.96;;;8.93;61.38
78857;BME280;68207;50.078;19.936;2023-04-23T05:02:22;98690.90;;;9.00;61.36
78857;BME280;68207;50.078;19.936;2023-04-23T05:04:48;98695.80;;;9.08;61.17
78857;BME280;68207;50.078;19.936;2023-04-23T05:07:14;98695.14;;;9.15;61.02
78857;BME280;68207;50.078;19.936;2023-04-23T05:09:39;98693.80;;;9.22;60.81
78857;BME280;68207;50.078;19.936;2023-04-23T05:12:05;98692.29;;;9.32;60.67
78857;BME280;68207;50.078;19.936;2023-04-23T05:14:32;98691.83;;;9.40;60.54
78857;BME280;68207;50.078;19.936;2023-04-23T05:16:57;98692.31;;;9.50;60.45
78857;BME280;68207;50.078;19.936;2023-04-23T05:19:22;98688.80;;;9.59;60.47
78857;BME280;68207;50.078;19.936;2023-04-23T05:21:48;98686.55;;;9.68;60.22
78857;BME280;68207;50.078;19.936;2023-04-23T05:24:13;98685.21;;;9.77;60.11
78857;BME280;68207;50.078;19.936;2023-04-23T05:26:38;98682.68;;;9.85;59.95
78857;BME280;68207;50.078;19.936;2023-04-23T05:29:04;98684.15;;;9.95;59.86
78857;BME280;68207;50.078;19.936;2023-04-23T05:31:29;98686.48;;;10.06;59.70
78857;BME280;68207;50.078;19.936;2023-04-23T05:33:55;98685.92;;;10.15;59.06
78857;BME280;68207;50.078;19.936;2023-04-23T05:36:20;98683.66;;;10.24;58.90
78857;BME280;68207;50.078;19.936;2023-04-23T05:38:46;98685.48;;;10.34;58.73
78857;BME280;68207;50.078;19.936;2023-04-23T05:41:11;98684.12;;;10.46;58.47
78857;BME280;68207;50.078;19.936;2023-04-23T05:43:36;98681.44;;;10.57;58.49
78857;BME280;68207;50.078;19.936;2023-04-23T05:46:02;98685.05;;;10.68;58.32
78857;BME280;68207;50.078;19.936;2023-04-23T05:48:30;98680.47;;;10.80;57.89
78857;BME280;68207;50.078;19.936;2023-04-23T05:50:55;98686.38;;;10.92;57.60
78857;BME280;68207;50.078;19.936;2023-04-23T05:53:20;98688.53;;;11.06;57.39
78857;BME280;68207;50.078;19.936;2023-04-23T05:55:46;98685.73;;;11.19;56.91
78857;BME280;68207;50.078;19.936;2023-04-23T05:58:11;98691.11;;;11.31;56.66
78857;BME280;68207;50.078;19.936;2023-04-23T06:00:36;98686.04;;;11.42;56.60
78857;BME280;68207;50.078;19.936;2023-04-23T06:03:02;98685.80;;;11.56;56.32
78857;BME280;68207;50.078;19.936;2023-04-23T06:05:27;98681.98;;;11.68;55.75
78857;BME280;68207;50.078;19.936;2023-04-23T06:07:52;98682.88;;;11.81;55.70
78857;BME280;68207;50.078;19.936;2023-04-23T06:10:18;98685.08;;;11.96;55.18
78857;BME280;68207;50.078;19.936;2023-04-23T06:12:43;98681.06;;;12.09;55.03
78857;BME280;68207;50.078;19.936;2023-04-23T06:15:08;98682.02;;;12.23;54.63
78857;BME280;68207;50.078;19.936;2023-04-23T06:17:34;98688.06;;;12.38;54.44
78857;BME280;68207;50.078;19.936;2023-04-23T06:20:00;98688.21;;;12.54;54.05
78857;BME280;68207;50.078;19.936;2023-04-23T06:22:25;98690.20;;;12.72;54.00
78857;BME280;68207;50.078;19.936;2023-04-23T06:24:51;98688.05;;;12.91;53.86
78857;BME280;68207;50.078;19.936;2023-04-23T06:27:16;98690.67;;;13.12;53.48
78857;BME280;68207;50.078;19.936;2023-04-23T06:29:41;98695.29;;;13.32;52.94
78857;BME280;68207;50.078;19.936;2023-04-23T06:32:07;98694.30;;;13.48;52.10
78857;BME280;68207;50.078;19.936;2023-04-23T06:34:32;98689.53;;;13.60;51.98
78857;BME280;68207;50.078;19.936;2023-04-23T06:36:57;98688.65;;;13.74;51.55
78857;BME280;68207;50.078;19.936;2023-04-23T06:39:23;98684.67;;;13.88;51.17
78857;BME280;68207;50.078;19.936;2023-04-23T06:41:48;98685.11;;;14.05;50.84
78857;BME280;68207;50.078;19.936;2023-04-23T06:44:13;98686.04;;;14.19;50.38
78857;BME280;68207;50.078;19.936;2023-04-23T06:46:39;98682.89;;;14.38;50.09
78857;BME280;68207;50.078;19.936;2023-04-23T06:49:04;98679.44;;;14.58;49.87
78857;BME280;68207;50.078;19.936;2023-04-23T06:51:29;98681.04;;;14.78;49.63
78857;BME280;68207;50.078;19.936;2023-04-23T06:53:56;98676.59;;;15.01;49.25
78857;BME280;68207;50.078;19.936;2023-04-23T06:56:22;98675.04;;;15.23;48.76
78857;BME280;68207;50.078;19.936;2023-04-23T06:58:48;98672.69;;;15.46;48.38
78857;BME280;68207;50.078;19.936;2023-04-23T07:01:13;98671.60;;;15.68;48.02
78857;BME280;68207;50.078;19.936;2023-04-23T07:03:38;98671.16;;;15.86;47.45
78857;BME280;68207;50.078;19.936;2023-04-23T07:06:04;98670.42;;;16.03;46.88
78857;BME280;68207;50.078;19.936;2023-04-23T07:08:29;98669.52;;;16.18;46.14
78857;BME280;68207;50.078;19.936;2023-04-23T07:10:54;98669.53;;;16.35;45.48
78857;BME280;68207;50.078;19.936;2023-04-23T07:13:20;98662.95;;;16.45;45.32
78857;BME280;68207;50.078;19.936;2023-04-23T07:15:45;98667.12;;;16.64;45.44
78857;BME280;68207;50.078;19.936;2023-04-23T07:18:11;98667.54;;;16.88;45.26
78857;BME280;68207;50.078;19.936;2023-04-23T07:20:36;98669.84;;;17.15;44.64
78857;BME280;68207;50.078;19.936;2023-04-23T07:23:02;98666.54;;;17.39;43.53
78857;BME280;68207;50.078;19.936;2023-04-23T07:25:28;98670.75;;;17.63;42.96
78857;BME280;68207;50.078;19.936;2023-04-23T07:27:54;98672.95;;;17.89;42.82
78857;BME280;68207;50.078;19.936;2023-04-23T07:30:20;98670.23;;;18.17;42.48
78857;BME280;68207;50.078;19.936;2023-04-23T07:32:45;98663.55;;;18.45;42.20
78857;BME280;68207;50.078;19.936;2023-04-23T07:35:11;98661.77;;;18.74;41.83
78857;BME280;68207;50.078;19.936;2023-04-23T07:37:37;98661.10;;;19.04;40.78
78857;BME280;68207;50.078;19.936;2023-04-23T07:40:03;98660.30;;;19.26;40.50
78857;BME280;68207;50.078;19.936;2023-04-23T07:42:30;98664.94;;;19.53;40.33
78857;BME280;68207;50.078;19.936;2023-04-23T07:44:55;98660.89;;;19.83;39.99
78857;BME280;68207;50.078;19.936;2023-04-23T07:47:20;98661.06;;;20.08;39.18
78857;BME280;68207;50.078;19.936;2023-04-23T07:49:46;98658.15;;;20.33;38.50
78857;BME280;68207;50.078;19.936;2023-04-23T07:52:11;98654.51;;;20.58;37.96
78857;BME280;68207;50.078;19.936;2023-04-23T07:54:36;98653.45;;;20.83;37.16
78857;BME280;68207;50.078;19.936;2023-04-23T07:57:01;98652.30;;;20.92;36.34
78857;BME280;68207;50.078;19.936;2023-04-23T07:59:28;98646.98;;;20.97;35.84
78857;BME280;68207;50.078;19.936;2023-04-23T08:01:53;98643.53;;;21.13;36.13
78857;BME280;68207;50.078;19.936;2023-04-23T08:04:19;98644.44;;;21.31;35.01
78857;BME280;68207;50.078;19.936;2023-04-23T08:06:44;98643.08;;;21.38;34.93
78857;BME280;68207;50.078;19.936;2023-04-23T08:09:10;98641.13;;;21.58;35.05
78857;BME280;68207;50.078;19.936;2023-04-23T08:11:35;98639.45;;;21.88;34.74
78857;BME280;68207;50.078;19.936;2023-04-23T08:14:00;98636.01;;;22.17;33.69
78857;BME280;68207;50.078;19.936;2023-04-23T08:16:26;98631.61;;;22.38;33.33
78857;BME280;68207;50.078;19.936;2023-04-23T08:18:51;98631.94;;;22.62;32.98
78857;BME280;68207;50.078;19.936;2023-04-23T08:21:17;98625.59;;;22.76;32.18
78857;BME280;68207;50.078;19.936;2023-04-23T08:23:42;98623.93;;;22.87;32.16
78857;BME280;68207;50.078;19.936;2023-04-23T08:26:07;98622.80;;;23.03;31.47
78857;BME280;68207;50.078;19.936;2023-04-23T08:28:34;98620.65;;;23.12;31.85
78857;BME280;68207;50.078;19.936;2023-04-23T08:30:59;98619.65;;;23.37;31.55
78857;BME280;68207;50.078;19.936;2023-04-23T08:33:25;98620.41;;;23.56;30.67
78857;BME280;68207;50.078;19.936;2023-04-23T08:35:50;98616.08;;;23.54;29.76
78857;BME280;68207;50.078;19.936;2023-04-23T08:38:16;98615.30;;;23.47;29.67
78857;BME280;68207;50.078;19.936;2023-04-23T08:40:41;98609.20;;;23.45;29.30
78857;BME280;68207;50.078;19.936;2023-04-23T08:43:15;98612.31;;;23.49;29.79
78857;BME280;68207;50.078;19.936;2023-04-23T08:45:45;98609.42;;;23.55;29.57
78857;BME280;68207;50.078;19.936;2023-04-23T08:48:11;98605.77;;;23.61;29.60
78857;BME280;68207;50.078;19.936;2023-04-23T08:50:41;98597.81;;;23.76;29.21
78857;BME280;68207;50.078;19.936;2023-04-23T08:53:07;98596.48;;;23.90;29.16
78857;BME280;68207;50.078;19.936;2023-04-23T08:55:33;98593.80;;;24.18;29.46
78857;BME280;68207;50.078;19.936;2023-04-23T08:58:00;98597.25;;;24.43;27.92
78857;BME280;68207;50.078;19.936;2023-04-23T09:00:26;98588.90;;;24.38;27.96
78857;BME280;68207;50.078;19.936;2023-04-23T09:02:52;98582.46;;;24.60;28.04
78857;BME280;68207;50.078;19.936;2023-04-23T09:05:17;98580.80;;;24.96;27.57
78857;BME280;68207;50.078;19.936;2023-04-23T09:07:43;98582.02;;;25.32;27.19
78857;BME280;68207;50.078;19.936;2023-04-23T09:10:10;98578.67;;;25.60;26.89
78857;BME280;68207;50.078;19.936;2023-04-23T09:12:38;98574.58;;;25.87;26.56
78857;BME280;68207;50.078;19.936;2023-04-23T09:15:04;98576.30;;;25.88;25.87
78857;BME280;68207;50.078;19.936;2023-04-23T09:17:37;98570.52;;;25.91;26.12
78857;BME280;68207;50.078;19.936;2023-04-23T09:20:04;98571.45;;;26.07;25.58
78857;BME280;68207;50.078;19.936;2023-04-23T09:22:49;98569.27;;;25.84;25.12
78857;BME280;68207;50.078;19.936;2023-04-23T09:25:19;98560.20;;;25.83;25.57
78857;BME280;68207;50.078;19.936;2023-04-23T09:27:46;98560.91;;;26.14;25.72
78857;BME280;68207;50.078;19.936;2023-04-23T09:30:12;98562.95;;;26.43;24.61
78857;BME280;68207;50.078;19.936;2023-04-23T09:32:39;98561.08;;;26.15;22.92
78857;BME280;68207;50.078;19.936;2023-04-23T09:35:07;98560.75;;;25.69;23.76
78857;BME280;68207;50.078;19.936;2023-04-23T09:37:33;98558.57;;;25.44;24.01
78857;BME280;68207;50.078;19.936;2023-04-23T09:40:01;98557.89;;;25.35;23.80
78857;BME280;68207;50.078;19.936;2023-04-23T09:42:29;98550.58;;;25.19;24.40
78857;BME280;68207;50.078;19.936;2023-04-23T09:45:04;98555.84;;;25.37;24.87
78857;BME280;68207;50.078;19.936;2023-04-23T09:47:34;98548.86;;;25.66;25.08
78857;BME280;68207;50.078;19.936;2023-04-23T09:50:02;98542.61;;;26.11;25.28
78857;BME280;68207;50.078;19.936;2023-04-23T09:52:30;98540.73;;;26.53;25.17
78857;BME280;68207;50.078;19.936;2023-04-23T09:54:57;98535.09;;;26.86;24.41
78857;BME280;68207;50.078;19.936;2023-04-23T09:57:25;98531.04;;;26.95;24.09
78857;BME280;68207;50.078;19.936;2023-04-23T09:59:50;98529.92;;;27.16;24.32
78857;BME280;68207;50.078;19.936;2023-04-23T10:02:16;98522.86;;;27.38;24.03
78857;BME280;68207;50.078;19.936;2023-04-23T10:04:41;98517.12;;;27.58;23.70
78857;BME280;68207;50.078;19.936;2023-04-23T10:07:07;98516.52;;;27.85;23.76
78857;BME280;68207;50.078;19.936;2023-04-23T10:09:33;98515.46;;;28.12;23.55
78857;BME280;68207;50.078;19.936;2023-04-23T10:12:00;98515.85;;;28.35;22.98
78857;BME280;68207;50.078;19.936;2023-04-23T10:14:29;98511.36;;;28.58;21.97
78857;BME280;68207;50.078;19.936;2023-04-23T10:17:00;98505.30;;;28.58;21.39
78857;BME280;68207;50.078;19.936;2023-04-23T10:19:27;98498.26;;;28.74;21.30
78857;BME280;68207;50.078;19.936;2023-04-23T10:22:03;98501.45;;;28.93;20.56
78857;BME280;68207;50.078;19.936;2023-04-23T10:24:34;98498.58;;;28.78;20.45
78857;BME280;68207;50.078;19.936;2023-04-23T10:27:02;98497.42;;;28.68;20.51
78857;BME280;68207;50.078;19.936;2023-04-23T10:29:30;98496.52;;;28.18;19.16
78857;BME280;68207;50.078;19.936;2023-04-23T10:31:58;98490.46;;;27.28;20.26
78857;BME280;68207;50.078;19.936;2023-04-23T10:34:25;98491.11;;;26.62;20.63
78857;BME280;68207;50.078;19.936;2023-04-23T10:36:51;98488.91;;;26.06;21.11
78857;BME280;68207;50.078;19.936;2023-04-23T10:39:19;98484.84;;;25.56;21.44
78857;BME280;68207;50.078;19.936;2023-04-23T10:41:45;98481.08;;;25.49;22.40
78857;BME280;68207;50.078;19.936;2023-04-23T10:44:12;98477.00;;;25.79;22.73
78857;BME280;68207;50.078;19.936;2023-04-23T10:46:37;98473.29;;;26.23;22.58
78857;BME280;68207;50.078;19.936;2023-04-23T10:49:23;98473.41;;;26.47;21.12
78857;BME280;68207;50.078;19.936;2023-04-23T10:52:00;98486.35;;;26.36;20.59
78857;BME280;68207;50.078;19.936;2023-04-23T10:54:32;98474.23;;;26.41;21.33
78857;BME280;68207;50.078;19.936;2023-04-23T10:57:00;98474.73;;;26.56;20.78
78857;BME280;68207;50.078;19.936;2023-04-23T10:59:28;98474.89;;;26.62;20.58
78857;BME280;68207;50.078;19.936;2023-04-23T11:01:56;98472.31;;;26.52;20.45
78857;BME280;68207;50.078;19.936;2023-04-23T11:04:26;98465.62;;;26.59;21.28
78857;BME280;68207;50.078;19.936;2023-04-23T11:07:03;98462.95;;;26.90;21.08
78857;BME280;68207;50.078;19.936;2023-04-23T11:09:31;98460.91;;;27.30;20.21
78857;BME280;68207;50.078;19.936;2023-04-23T11:11:58;98457.09;;;27.35;20.34
78857;BME280;68207;50.078;19.936;2023-04-23T11:14:35;98457.16;;;27.68;20.46
78857;BME280;68207;50.078;19.936;2023-04-23T11:17:02;98456.91;;;28.18;20.00
78857;BME280;68207;50.078;19.936;2023-04-23T11:19:27;98464.25;;;28.15;18.70
78857;BME280;68207;50.078;19.936;2023-04-23T11:22:00;98455.02;;;27.83;19.12
78857;BME280;68207;50.078;19.936;2023-04-23T11:24:35;98455.16;;;27.46;19.17
78857;BME280;68207;50.078;19.936;2023-04-23T11:27:04;98452.20;;;27.30;19.27
78857;BME280;68207;50.078;19.936;2023-04-23T11:29:30;98447.58;;;27.03;19.44
78857;BME280;68207;50.078;19.936;2023-04-23T11:31:55;98443.93;;;26.98;20.00
78857;BME280;68207;50.078;19.936;2023-04-23T11:34:21;98457.33;;;26.88;19.60
78857;BME280;68207;50.078;19.936;2023-04-23T11:36:51;98447.42;;;26.57;20.13
78857;BME280;68207;50.078;19.936;2023-04-23T11:39:17;98446.28;;;26.77;20.25
78857;BME280;68207;50.078;19.936;2023-04-23T11:41:44;98436.89;;;27.25;20.23
78857;BME280;68207;50.078;19.936;2023-04-23T11:44:11;98440.02;;;27.73;19.60
78857;BME280;68207;50.078;19.936;2023-04-23T11:46:36;98434.52;;;27.93;19.38
78857;BME280;68207;50.078;19.936;2023-04-23T11:49:02;98433.36;;;28.08;19.18
78857;BME280;68207;50.078;19.936;2023-04-23T11:51:27;98433.59;;;28.10;19.08
78857;BME280;68207;50.078;19.936;2023-04-23T11:53:53;98427.73;;;28.19;19.16
78857;BME280;68207;50.078;19.936;2023-04-23T11:56:18;98440.95;;;27.97;18.79
78857;BME280;68207;50.078;19.936;2023-04-23T11:58:44;98424.90;;;27.68;19.58
78857;BME280;68207;50.078;19.936;2023-04-23T12:01:10;98429.66;;;27.67;19.68
78857;BME280;68207;50.078;19.936;2023-04-23T12:03:36;98425.30;;;27.63;19.35
78857;BME280;68207;50.078;19.936;2023-04-23T12:06:02;98425.72;;;27.82;19.54
78857;BME280;68207;50.078;19.936;2023-04-23T12:08:31;98426.57;;;28.10;19.44
78857;BME280;68207;50.078;19.936;2023-04-23T12:11:00;98416.48;;;28.44;19.29
78857;BME280;68207;50.078;19.936;2023-04-23T12:13:30;98414.02;;;28.75;18.82
78857;BME280;68207;50.078;19.936;2023-04-23T12:16:00;98414.36;;;28.78;18.78
78857;BME280;68207;50.078;19.936;2023-04-23T12:18:30;98413.67;;;28.73;18.91
78857;BME280;68207;50.078;19.936;2023-04-23T12:21:16;98409.69;;;28.71;18.96
78857;BME280;68207;50.078;19.936;2023-04-23T12:23:42;98414.83;;;28.71;18.90
78857;BME280;68207;50.078;19.936;2023-04-23T12:26:12;98413.11;;;28.78;18.85
78857;BME280;68207;50.078;19.936;2023-04-23T12:29:05;98409.02;;;28.97;18.69
78857;BME280;68207;50.078;19.936;2023-04-23T12:31:31;98408.24;;;29.16;18.59
78857;BME280;68207;50.078;19.936;2023-04-23T12:34:04;98401.30;;;29.35;18.67
78857;BME280;68207;50.078;19.936;2023-04-23T12:36:30;98403.92;;;29.34;17.67
78857;BME280;68207;50.078;19.936;2023-04-23T12:39:24;98396.46;;;28.88;18.18
78857;BME280;68207;50.078;19.936;2023-04-23T12:41:56;98390.02;;;28.93;18.53
78857;BME280;68207;50.078;19.936;2023-04-23T12:44:27;98393.60;;;28.97;17.96
78857;BME280;68207;50.078;19.936;2023-04-23T12:46:54;98387.58;;;28.57;18.04
78857;BME280;68207;50.078;19.936;2023-04-23T12:49:20;98384.03;;;28.38;18.46